Impacts TAF Board
For situational awareness. Not to be used for flight planning purposes.
IDs:

KPSC - Pasco/Tri Cities Arp, WA, US

Issued at 1120 UTC 07 Jul 2020
Updated at 1214 UTC 07 Jul 2020
Potential Impact None Slight Moderate High
Time1153Z 07/13Z 07/14Z 07/15Z 07/16Z 07/17Z 07/18Z 07/19Z 07/20Z 07/21Z 07/22Z 07/23Z 08/00Z 08/01Z>>
Type OBS PRVL PRVL PRVL PRVL PRVL PRVL PRVL PRVL PRVL PRVL PRVL PRVL PRVL
VIS 10 >6 >6 >6 >6 >6 >6 >6 >6 >6 >6 >6 >6 >6
CIG -- -- -- -- -- -- -- -- -- -- -- -- -- --
Cover CLR FEW FEW FEW FEW FEW FEW FEW FEW FEW FEW FEW FEW FEW
FltCat VFR VFR VFR VFR VFR VFR VFR VFR VFR VFR VFR VFR VFR VFR
WX -- -- -- -- -- -- -- -- -- -- -- -- -- --
WDir 210 220 230 230 230 230 230 230 230 230 230 230 230 230
WSpd 7 8 15 15 15 15 15 15 15 15 15 15 15 15
WGst -- -- 23 23 23 23 23 23 23 23 23 23 23 23
Raw TAF
KPSC 071120Z 0712/0812 22008KT P6SM FEW250
  FM071400 23015G23KT P6SM FEW250
  FM080200 28015G23KT P6SM FEW250
  FM080700 23007KT P6SM FEW250


Raw METAR
KPSC 071153Z AUTO 21007KT 10SM CLR 16/08 A2990 RMK AO2 SLP121 60002 70002 T01610083 10233 20156 51015
KPSC 071053Z AUTO 21005KT 10SM CLR 16/09 A2988 RMK AO2 SLP115 T01610094
KPSC 070953Z AUTO 19009KT 10SM CLR 18/09 A2987 RMK AO2 SLP112 T01780094

METAR Board
Radar Display
Forecast Discussion
For situational awareness. Not to be used for flight planning purposes.